createdAt,value
2022-09-01T00:00:01.658Z,98255.78
2022-09-01T00:02:30.675Z,98256.38
2022-09-01T00:04:59.509Z,98266.19
2022-09-01T00:07:30.859Z,98259.66
2022-09-01T00:09:58.958Z,98257.50
2022-09-01T00:12:27.326Z,98256.16
2022-09-01T00:14:55.490Z,98254.53
2022-09-01T00:17:23.571Z,98250.72
2022-09-01T00:19:51.384Z,98255.34
2022-09-01T00:22:19.672Z,98246.38
2022-09-01T00:24:49.235Z,98251.00
2022-09-01T00:27:17.354Z,98253.22
2022-09-01T00:29:45.797Z,98256.44
2022-09-01T00:32:14.115Z,98256.75
2022-09-01T00:34:42.011Z,98260.56
2022-09-01T00:37:09.976Z,98258.41
2022-09-01T00:39:37.905Z,98266.03
2022-09-01T00:42:07.243Z,98269.88
2022-09-01T00:44:36.515Z,98263.94
2022-09-01T00:47:07.777Z,98259.88
2022-09-01T00:49:39.030Z,98260.91
2022-09-01T00:52:11.555Z,98258.72
2022-09-01T00:54:43.394Z,98249.72
2022-09-01T00:57:14.005Z,98249.16
2022-09-01T00:59:47.914Z,98246.97
2022-09-01T01:02:15.975Z,98251.53
2022-09-01T01:04:46.412Z,98249.44
2022-09-01T01:07:14.813Z,98244.00
2022-09-01T01:09:44.802Z,98243.56
2022-09-01T01:12:18.508Z,98243.88
2022-09-01T01:14:48.034Z,98242.25
2022-09-01T01:17:15.948Z,98253.13
2022-09-01T01:20:03.241Z,98245.50
2022-09-01T01:22:56.061Z,98237.88
2022-09-01T01:25:25.758Z,98234.91
2022-09-01T01:27:54.381Z,98248.50
2022-09-01T01:30:23.730Z,98243.88
2022-09-01T01:32:51.985Z,98249.31
2022-09-01T01:35:21.885Z,98256.66
2022-09-01T01:37:50.533Z,98263.44
2022-09-01T01:40:22.258Z,98257.22
2022-09-01T01:42:53.868Z,98265.13
2022-09-01T01:45:24.294Z,98264.59
2022-09-01T01:47:54.520Z,98267.59
2022-09-01T01:50:22.773Z,98263.53
2022-09-01T01:52:58.112Z,98263.53
2022-09-01T01:55:28.008Z,98266.88
2022-09-01T01:57:57.648Z,98270.22
2022-09-01T02:00:30.601Z,98267.28
2022-09-01T02:02:59.639Z,98275.50
2022-09-01T02:05:29.907Z,98277.44
2022-09-01T02:08:00.106Z,98276.69
2022-09-01T02:10:30.987Z,98277.53
2022-09-01T02:13:03.674Z,98268.06
2022-09-01T02:15:32.197Z,98272.97
2022-09-01T02:18:00.741Z,98266.97
2022-09-01T02:20:33.068Z,98264.00
2022-09-01T02:23:04.918Z,98257.22
2022-09-01T02:25:32.912Z,98262.91
2022-09-01T02:28:04.222Z,98265.88
2022-09-01T02:30:33.096Z,98258.25
2022-09-01T02:33:01.852Z,98260.44
2022-09-01T02:35:34.291Z,98254.41
2022-09-01T02:38:02.565Z,98259.03
2022-09-01T02:40:30.568Z,98257.94
2022-09-01T02:42:59.833Z,98249.53
2022-09-01T02:45:29.991Z,98254.97
2022-09-01T02:47:58.074Z,98251.97
2022-09-01T02:50:27.637Z,98255.78
2022-09-01T02:52:55.566Z,98259.59
2022-09-01T02:55:25.715Z,98253.59
2022-09-01T02:57:57.111Z,98249.00
2022-09-01T03:00:31.555Z,98250.63
2022-09-01T03:03:02.909Z,98252.25
2022-09-01T03:05:32.709Z,98259.84
2022-09-01T03:08:02.123Z,98250.34
2022-09-01T03:10:32.863Z,98249.53
2022-09-01T03:13:02.066Z,98251.16
2022-09-01T03:15:33.793Z,98244.34
2022-09-01T03:18:03.767Z,98243.81
2022-09-01T03:20:33.577Z,98238.41
2022-09-01T03:23:01.812Z,98247.38
2022-09-01T03:25:30.436Z,98238.69
2022-09-01T03:28:03.131Z,98245.75
2022-09-01T03:30:31.663Z,98246.09
2022-09-01T03:33:00.089Z,98246.97
2022-09-01T03:35:31.926Z,98247.00
2022-09-01T03:38:00.358Z,98255.69
2022-09-01T03:40:32.808Z,98261.69
2022-09-01T03:43:01.572Z,98260.06
2022-09-01T03:45:29.893Z,98257.34
2022-09-01T03:47:58.348Z,98253.00
2022-09-01T03:50:28.342Z,98255.44
2022-09-01T03:53:01.613Z,98258.69
2022-09-01T03:55:31.109Z,98251.09
2022-09-01T03:58:03.289Z,98261.38
2022-09-01T04:00:32.410Z,98256.75
2022-09-01T04:03:00.609Z,98251.31
2022-09-01T04:05:29.580Z,98253.75
2022-09-01T04:08:02.667Z,98258.66
2022-09-01T04:10:31.922Z,98257.03
2022-09-01T04:13:00.165Z,98258.09
2022-09-01T04:15:29.438Z,98260.00
2022-09-01T04:18:09.616Z,98253.22
2022-09-01T04:20:48.414Z,98257.31
2022-09-01T04:23:26.432Z,98253.25
2022-09-01T04:25:56.861Z,98258.41
2022-09-01T04:28:26.845Z,98264.09
2022-09-01T04:30:57.101Z,98263.53
2022-09-01T04:33:26.010Z,98257.31
2022-09-01T04:35:54.996Z,98266.78
2022-09-01T04:38:25.421Z,98263.81
2022-09-01T04:40:53.785Z,98262.16
2022-09-01T04:43:21.962Z,98270.84
2022-09-01T04:45:51.989Z,98262.19
2022-09-01T04:48:22.188Z,98261.09
2022-09-01T04:50:52.106Z,98262.44
2022-09-01T04:53:20.705Z,98261.91
2022-09-01T04:55:50.292Z,98267.88
2022-09-01T04:58:19.542Z,98260.25
2022-09-01T05:00:49.676Z,98262.44
2022-09-01T05:03:21.623Z,98264.88
2022-09-01T05:05:49.585Z,98267.03
2022-09-01T05:08:23.430Z,98265.13
2022-09-01T05:10:56.725Z,98266.75
2022-09-01T05:13:27.393Z,98274.34
2022-09-01T05:16:02.780Z,98265.91
2022-09-01T05:18:30.837Z,98268.13
2022-09-01T05:20:58.716Z,98275.66
2022-09-01T05:23:27.229Z,98269.75
2022-09-01T05:25:57.341Z,98275.41
2022-09-01T05:28:27.194Z,98274.59
2022-09-01T05:30:55.616Z,98276.22
2022-09-01T05:33:24.607Z,98280.53
2022-09-01T05:35:56.807Z,98270.22
2022-09-01T05:38:25.750Z,98278.63
2022-09-01T05:41:02.073Z,98265.06
2022-09-01T05:43:30.842Z,98270.75
2022-09-01T05:46:06.704Z,98262.06
2022-09-01T05:48:40.317Z,98265.84
2022-09-01T05:51:27.501Z,98268.00
2022-09-01T05:53:59.376Z,98265.28
2022-09-01T05:56:30.602Z,98273.41
2022-09-01T06:01:50.389Z,98260.63
2022-09-01T06:04:19.518Z,98267.13
2022-09-01T06:07:06.885Z,98263.31
2022-09-01T06:09:39.381Z,98267.34
2022-09-01T06:12:17.815Z,98255.09
2022-09-01T06:14:46.372Z,98259.16
2022-09-01T06:17:16.481Z,98254.28
2022-09-01T06:19:44.830Z,98252.06
2022-09-01T06:22:13.065Z,98259.13
2022-09-01T06:24:43.842Z,98252.03
2022-09-01T06:27:18.041Z,98251.72
2022-09-01T06:29:49.356Z,98250.81
2022-09-01T06:32:17.236Z,98257.78
2022-09-01T06:34:49.841Z,98255.28
2022-09-01T06:37:18.517Z,98238.06
2022-09-01T06:39:46.778Z,98241.81
2022-09-01T06:42:17.489Z,98248.53
2022-09-01T06:44:46.092Z,98250.06
2022-09-01T06:47:15.624Z,98247.56
2022-09-01T06:49:44.874Z,98253.31
2022-09-01T06:52:13.875Z,98254.16
2022-09-01T06:54:44.018Z,98256.06
2022-09-01T07:00:01.499Z,98251.69
2022-09-01T07:02:30.438Z,98261.41
2022-09-01T07:05:02.225Z,98253.81
2022-09-01T07:10:23.269Z,98263.53
2022-09-01T07:18:31.049Z,98261.38
2022-09-01T07:21:07.056Z,98259.66
2022-09-01T07:26:46.788Z,98269.31
2022-09-01T07:29:15.288Z,98264.84
2022-09-01T07:32:43.590Z,98264.25
2022-09-01T07:34:40.382Z,98277.13
2022-09-01T07:38:47.547Z,98271.69
2022-09-01T07:45:31.162Z,98277.41
2022-09-01T07:48:03.207Z,98275.41
2022-09-01T07:51:07.479Z,98274.91
2022-09-01T07:53:22.392Z,98284.09
2022-09-01T07:55:52.090Z,98288.41
2022-09-01T07:58:22.095Z,98291.69
2022-09-01T08:00:51.280Z,98287.78
2022-09-01T08:03:24.228Z,98286.09
2022-09-01T08:05:57.662Z,98288.31
2022-09-01T08:08:28.998Z,98293.97
2022-09-01T08:11:05.100Z,98284.91
2022-09-01T08:13:38.785Z,98294.31
2022-09-01T08:16:16.898Z,98291.50
2022-09-01T08:18:49.037Z,98291.00
2022-09-01T08:21:19.779Z,98304.03
2022-09-01T08:23:48.061Z,98294.06
2022-09-01T08:26:18.276Z,98293.38
2022-09-01T08:28:47.147Z,98299.00
2022-09-01T08:31:17.705Z,98297.00
2022-09-01T08:33:48.562Z,98304.09
2022-09-01T08:36:21.496Z,98304.59
2022-09-01T08:38:52.127Z,98293.28
2022-09-01T08:41:28.715Z,98305.41
2022-09-01T08:44:11.393Z,98301.78
2022-09-01T08:46:41.506Z,98308.34
2022-09-01T08:49:43.058Z,98298.38
2022-09-01T08:52:09.570Z,98307.69
2022-09-01T08:54:42.305Z,98309.81
2022-09-01T08:57:16.489Z,98310.91
2022-09-01T08:59:44.518Z,98309.00
2022-09-01T09:02:24.830Z,98310.63
2022-09-01T09:05:15.348Z,98314.38
2022-09-01T09:08:06.513Z,98312.03
2022-09-01T09:10:41.468Z,98314.47
2022-09-01T09:13:15.862Z,98315.88
2022-09-01T09:15:47.350Z,98320.75
2022-09-01T09:18:38.996Z,98321.16
2022-09-01T09:21:15.036Z,98319.44
2022-09-01T09:23:47.241Z,98316.72
2022-09-01T09:26:21.898Z,98319.94
2022-09-01T09:28:51.094Z,98316.91
2022-09-01T09:31:35.756Z,98316.81
2022-09-01T09:34:04.576Z,98309.22
2022-09-01T09:36:38.417Z,98307.19
2022-09-01T09:39:14.091Z,98309.91
2022-09-01T09:41:42.968Z,98316.56
2022-09-01T09:44:23.232Z,98306.75
2022-09-01T09:46:51.803Z,98317.47
2022-09-01T09:49:34.951Z,98313.72
2022-09-01T09:52:18.817Z,98307.31
2022-09-01T09:55:04.627Z,98309.44
2022-09-01T09:57:35.785Z,98306.19
2022-09-01T10:00:08.578Z,98304.22
2022-09-01T10:02:38.455Z,98304.13
2022-09-01T10:05:25.200Z,98304.38
2022-09-01T10:07:55.925Z,98296.53
2022-09-01T10:10:31.452Z,98296.38
2022-09-01T10:13:01.871Z,98298.41
2022-09-01T10:15:32.248Z,98296.91
2022-09-01T10:20:57.068Z,98289.84
2022-09-01T10:23:30.868Z,98296.63
2022-09-01T10:26:06.026Z,98286.81
2022-09-01T10:28:35.824Z,98282.50
2022-09-01T10:31:05.242Z,98296.56
2022-09-01T10:33:37.025Z,98288.84
2022-09-01T10:36:09.932Z,98293.19
2022-09-01T10:38:39.328Z,98293.22
2022-09-01T10:41:14.737Z,98288.44
2022-09-01T10:43:45.087Z,98289.81
2022-09-01T10:46:51.011Z,98285.78
2022-09-01T10:49:52.580Z,98287.38
2022-09-01T10:52:57.956Z,98290.16
2022-09-01T10:55:47.964Z,98279.03
2022-09-01T11:01:21.602Z,98275.78
2022-09-01T11:04:02.416Z,98274.34
2022-09-01T11:07:11.665Z,98283.09
2022-09-01T11:09:35.381Z,98275.66
2022-09-01T11:12:29.081Z,98271.72
2022-09-01T11:15:00.083Z,98267.31
2022-09-01T11:17:29.618Z,98255.28
2022-09-01T11:20:12.903Z,98261.25
2022-09-01T11:22:42.954Z,98266.50
2022-09-01T11:25:39.892Z,98259.84
2022-09-01T11:28:26.294Z,98255.19
2022-09-01T11:30:56.578Z,98251.44
2022-09-01T11:33:44.293Z,98259.84
2022-09-01T11:36:23.567Z,98257.94
2022-09-01T11:38:55.891Z,98264.94
2022-09-01T11:41:25.756Z,98273.34
2022-09-01T11:43:59.063Z,98258.72
2022-09-01T11:46:29.084Z,98260.78
2022-09-01T11:48:59.205Z,98246.75
2022-09-01T11:51:27.146Z,98249.41
2022-09-01T11:54:01.397Z,98241.31
2022-09-01T11:56:29.905Z,98235.09
2022-09-01T11:58:59.327Z,98233.28
2022-09-01T12:01:34.378Z,98226.59
2022-09-01T12:04:22.466Z,98243.91
2022-09-01T12:06:56.243Z,98231.81
2022-09-01T12:09:24.072Z,98236.91
2022-09-01T12:11:52.836Z,98232.63
2022-09-01T12:14:23.385Z,98232.44
2022-09-01T12:17:00.466Z,98233.00
2022-09-01T12:19:30.089Z,98229.44
2022-09-01T12:22:01.138Z,98236.19
2022-09-01T12:24:30.294Z,98241.06
2022-09-01T12:26:59.122Z,98238.94
2022-09-01T12:29:32.198Z,98232.97
2022-09-01T12:32:01.325Z,98240.25
2022-09-01T12:34:38.457Z,98240.44
2022-09-01T12:37:13.242Z,98241.25
2022-09-01T12:39:42.568Z,98235.38
2022-09-01T12:42:14.877Z,98232.97
2022-09-01T12:44:52.355Z,98235.13
2022-09-01T12:47:53.516Z,98226.13
2022-09-01T12:50:44.015Z,98227.78
2022-09-01T12:53:36.586Z,98229.72
2022-09-01T12:56:29.890Z,98219.78
2022-09-01T12:59:14.390Z,98224.00
2022-09-01T13:01:47.068Z,98222.47
2022-09-01T13:04:25.956Z,98220.84
2022-09-01T13:06:54.647Z,98225.59
2022-09-01T13:09:22.904Z,98209.19
2022-09-01T13:12:07.675Z,98207.59
2022-09-01T13:14:35.841Z,98209.91
2022-09-01T13:17:06.120Z,98205.56
2022-09-01T13:19:42.253Z,98202.19
2022-09-01T13:22:10.189Z,98212.63
2022-09-01T13:24:39.690Z,98212.63
2022-09-01T13:27:23.597Z,98198.38
2022-09-01T13:29:52.315Z,98203.88
2022-09-01T13:32:23.955Z,98187.50
2022-09-01T13:34:53.811Z,98191.56
2022-09-01T13:37:22.354Z,98195.22
2022-09-01T13:39:50.659Z,98195.00
2022-09-01T13:42:18.731Z,98188.63
2022-09-01T13:44:49.665Z,98183.00
2022-09-01T13:47:29.739Z,98187.84
2022-09-01T13:50:07.645Z,98190.88
2022-09-01T13:52:36.787Z,98189.72
2022-09-01T13:55:05.482Z,98192.38
2022-09-01T13:57:36.515Z,98188.47
2022-09-01T14:00:08.311Z,98191.09
2022-09-01T14:02:43.160Z,98181.97
2022-09-01T14:05:11.630Z,98187.03
2022-09-01T14:07:39.603Z,98185.53
2022-09-01T14:10:08.975Z,98180.84
2022-09-01T14:12:37.398Z,98168.06
2022-09-01T14:15:16.669Z,98172.00
2022-09-01T14:17:48.176Z,98179.78
2022-09-01T14:20:19.479Z,98174.75
2022-09-01T14:22:47.668Z,98171.06
2022-09-01T14:25:17.032Z,98172.72
2022-09-01T14:27:45.263Z,98165.47
2022-09-01T14:30:17.682Z,98168.09
2022-09-01T14:32:47.519Z,98159.25
2022-09-01T14:35:16.407Z,98159.91
2022-09-01T14:37:45.716Z,98150.50
2022-09-01T14:40:16.679Z,98155.03
2022-09-01T14:42:49.165Z,98146.94
2022-09-01T14:45:19.730Z,98153.31
2022-09-01T14:47:50.071Z,98155.09
2022-09-01T14:50:22.911Z,98147.28
2022-09-01T14:52:54.022Z,98148.78
2022-09-01T14:55:22.876Z,98147.16
2022-09-01T14:57:50.812Z,98144.16
2022-09-01T15:00:19.133Z,98147.13
2022-09-01T15:02:47.492Z,98137.19
2022-09-01T15:05:17.019Z,98134.34
2022-09-01T15:07:45.064Z,98141.56
2022-09-01T15:10:24.777Z,98143.00
2022-09-01T15:12:54.056Z,98149.59
2022-09-01T15:15:22.554Z,98133.25
2022-09-01T15:17:50.439Z,98128.34
2022-09-01T15:20:37.307Z,98135.59
2022-09-01T15:23:05.929Z,98133.53
2022-09-01T15:25:34.078Z,98135.00
2022-09-01T15:28:02.253Z,98141.09
2022-09-01T15:30:30.158Z,98127.91
2022-09-01T15:32:58.047Z,98138.31
2022-09-01T15:35:29.381Z,98132.94
2022-09-01T15:37:58.184Z,98138.56
2022-09-01T15:40:26.948Z,98133.88
2022-09-01T15:42:55.883Z,98135.50
2022-09-01T15:45:25.359Z,98156.66
2022-09-01T15:47:53.248Z,98142.50
2022-09-01T15:50:22.722Z,98152.78
2022-09-01T15:53:01.526Z,98149.72
2022-09-01T15:55:31.343Z,98137.50
2022-09-01T15:58:00.215Z,98143.41
2022-09-01T16:00:28.730Z,98139.13
2022-09-01T16:03:01.820Z,98135.97
2022-09-01T16:05:30.331Z,98142.44
2022-09-01T16:08:01.440Z,98139.38
2022-09-01T16:10:33.515Z,98139.84
2022-09-01T16:13:04.598Z,98133.00
2022-09-01T16:15:33.049Z,98136.16
2022-09-01T16:18:23.236Z,98134.09
2022-09-01T16:20:57.149Z,98133.53
2022-09-01T16:23:31.003Z,98131.06
2022-09-01T16:26:03.000Z,98131.06
2022-09-01T16:28:35.659Z,98125.44
2022-09-01T16:31:06.551Z,98133.16
2022-09-01T16:36:26.331Z,98116.91
2022-09-01T16:39:01.272Z,98128.22
2022-09-01T16:41:43.214Z,98122.41
2022-09-01T16:44:19.689Z,98119.81
2022-09-01T16:46:53.923Z,98121.16
2022-09-01T16:49:28.146Z,98116.34
2022-09-01T16:52:04.385Z,98123.16
2022-09-01T16:54:43.180Z,98116.72
2022-09-01T16:57:16.444Z,98119.50
2022-09-01T16:59:52.048Z,98114.53
2022-09-01T17:02:38.680Z,98114.94
2022-09-01T17:05:16.956Z,98111.16
2022-09-01T17:07:52.109Z,98108.19
2022-09-01T17:10:33.565Z,98106.56
2022-09-01T17:13:14.382Z,98112.84
2022-09-01T17:15:43.984Z,98109.97
2022-09-01T17:18:23.056Z,98110.78
2022-09-01T17:20:57.827Z,98107.91
2022-09-01T17:23:28.953Z,98111.47
2022-09-01T17:26:03.125Z,98113.91
2022-09-01T17:28:37.629Z,98109.56
2022-09-01T17:31:14.374Z,98113.16
2022-09-01T17:33:57.565Z,98116.38
2022-09-01T17:36:46.631Z,98120.25
2022-09-01T17:39:25.424Z,98118.16
2022-09-01T17:41:57.961Z,98115.88
2022-09-01T17:44:35.557Z,98120.84
2022-09-01T17:47:12.587Z,98129.06
2022-09-01T17:49:47.997Z,98128.41
2022-09-01T17:52:21.615Z,98119.84
2022-09-01T17:54:54.715Z,98126.94
2022-09-01T17:57:28.902Z,98124.84
2022-09-01T18:00:01.621Z,98131.44
2022-09-01T18:02:58.456Z,98129.31
2022-09-01T18:05:27.681Z,98130.25
2022-09-01T18:08:11.510Z,98132.34
2022-09-01T18:10:43.210Z,98124.22
2022-09-01T18:13:30.945Z,98131.78
2022-09-01T18:16:12.901Z,98145.75
2022-09-01T18:18:43.465Z,98137.19
2022-09-01T18:21:13.137Z,98146.47
2022-09-01T18:23:43.253Z,98145.00
2022-09-01T18:26:18.924Z,98151.09
2022-09-01T18:28:48.939Z,98150.75
2022-09-01T18:31:27.947Z,98152.97
2022-09-01T18:34:04.201Z,98163.56
2022-09-01T18:36:38.222Z,98163.25
2022-09-01T18:39:09.397Z,98167.84
2022-09-01T18:41:45.866Z,98161.38
2022-09-01T18:44:26.889Z,98172.75
2022-09-01T18:46:58.669Z,98170.09
2022-09-01T18:49:31.913Z,98167.50
2022-09-01T18:52:11.352Z,98176.13
2022-09-01T18:54:44.747Z,98167.72
2022-09-01T18:57:16.851Z,98174.44
2022-09-01T19:00:17.895Z,98171.81
2022-09-01T19:03:04.823Z,98169.22
2022-09-01T19:05:47.581Z,98169.34
2022-09-01T19:08:23.861Z,98170.16
2022-09-01T19:10:54.836Z,98166.13
2022-09-01T19:13:36.194Z,98175.53
2022-09-01T19:16:13.858Z,98167.84
2022-09-01T19:18:45.891Z,98179.19
2022-09-01T19:21:21.652Z,98170.78
2022-09-01T19:23:55.079Z,98169.78
2022-09-01T19:26:25.810Z,98173.03
2022-09-01T19:28:55.110Z,98167.78
2022-09-01T19:31:27.351Z,98173.25
2022-09-01T19:33:59.290Z,98174.16
2022-09-01T19:36:41.910Z,98179.63
2022-09-01T19:39:12.712Z,98176.78
2022-09-01T19:41:43.937Z,98179.53
2022-09-01T19:44:16.549Z,98174.75
2022-09-01T19:46:49.855Z,98175.84
2022-09-01T19:49:24.879Z,98172.41
2022-09-01T19:51:58.573Z,98174.94
2022-09-01T19:54:31.253Z,98176.66
2022-09-01T19:57:04.337Z,98176.97
2022-09-01T19:59:47.290Z,98176.00
2022-09-01T20:02:24.700Z,98168.31
2022-09-01T20:04:57.988Z,98170.13
2022-09-01T20:07:30.658Z,98164.97
2022-09-01T20:10:02.300Z,98174.56
2022-09-01T20:12:39.547Z,98169.50
2022-09-01T20:15:11.785Z,98177.19
2022-09-01T20:17:45.065Z,98172.84
2022-09-01T20:20:15.770Z,98175.34
2022-09-01T20:22:51.366Z,98164.94
2022-09-01T20:25:21.669Z,98168.59
2022-09-01T20:27:55.572Z,98168.06
2022-09-01T20:30:25.453Z,98171.09
2022-09-01T20:33:01.034Z,98167.34
2022-09-01T20:35:37.572Z,98171.41
2022-09-01T20:38:33.303Z,98167.16
2022-09-01T20:41:09.135Z,98165.53
2022-09-01T20:43:41.379Z,98167.75
2022-09-01T20:46:09.269Z,98164.00
2022-09-01T20:48:41.160Z,98167.34
2022-09-01T20:51:13.110Z,98165.41
2022-09-01T20:53:56.711Z,98167.34
2022-09-01T20:56:31.301Z,98167.13
2022-09-01T20:59:04.408Z,98167.72
2022-09-01T21:01:38.500Z,98166.91
2022-09-01T21:04:13.225Z,98159.63
2022-09-01T21:06:51.153Z,98159.63
2022-09-01T21:09:25.758Z,98160.72
2022-09-01T21:12:00.493Z,98159.31
2022-09-01T21:14:37.412Z,98156.38
2022-09-01T21:17:12.170Z,98156.97
2022-09-01T21:19:47.076Z,98152.13
2022-09-01T21:22:21.149Z,98156.06
2022-09-01T21:24:50.084Z,98153.69
2022-09-01T21:27:20.164Z,98150.38
2022-09-01T21:29:58.242Z,98152.31
2022-09-01T21:32:27.289Z,98156.94
2022-09-01T21:34:57.189Z,98148.75
2022-09-01T21:37:26.313Z,98143.91
2022-09-01T21:39:55.241Z,98147.44
2022-09-01T21:42:26.009Z,98150.25
2022-09-01T21:44:54.751Z,98148.13
2022-09-01T21:47:22.814Z,98150.13
2022-09-01T21:49:50.945Z,98149.59
2022-09-01T21:52:20.246Z,98156.16
2022-09-01T21:54:48.585Z,98151.81
2022-09-01T21:57:16.585Z,98149.38
2022-09-01T21:59:44.415Z,98153.00
2022-09-01T22:02:12.361Z,98147.84
2022-09-01T22:04:41.351Z,98148.16
2022-09-01T22:07:16.916Z,98147.72
2022-09-01T22:09:46.960Z,98149.63
2022-09-01T22:12:15.250Z,98150.00
2022-09-01T22:14:43.183Z,98150.00
2022-09-01T22:17:11.628Z,98145.00
2022-09-01T22:19:39.919Z,98143.09
2022-09-01T22:22:08.537Z,98145.06
2022-09-01T22:24:36.977Z,98142.84
2022-09-01T22:27:07.151Z,98142.63
2022-09-01T22:29:35.101Z,98135.88
2022-09-01T22:32:03.421Z,98129.59
2022-09-01T22:34:33.864Z,98138.28
2022-09-01T22:37:02.068Z,98137.25
2022-09-01T22:39:30.164Z,98138.88
2022-09-01T22:41:58.125Z,98142.72
2022-09-01T22:44:27.668Z,98142.53
2022-09-01T22:46:55.526Z,98134.13
2022-09-01T22:49:23.357Z,98134.19
2022-09-01T22:51:51.591Z,98129.34
2022-09-01T22:54:19.771Z,98142.13
2022-09-01T22:56:49.839Z,98142.69
2022-09-01T22:59:17.857Z,98142.25
2022-09-01T23:01:48.109Z,98135.47
2022-09-01T23:04:17.305Z,98138.25
2022-09-01T23:06:48.061Z,98134.72
2022-09-01T23:09:16.938Z,98140.47
2022-09-01T23:11:45.455Z,98137.06
2022-09-01T23:14:13.905Z,98132.50
2022-09-01T23:16:42.007Z,98139.69
2022-09-01T23:19:11.313Z,98132.16
2022-09-01T23:21:39.701Z,98131.41
2022-09-01T23:24:07.833Z,98136.69
2022-09-01T23:26:36.188Z,98132.63
2022-09-01T23:29:05.117Z,98128.66
2022-09-01T23:31:36.050Z,98134.94
2022-09-01T23:34:05.269Z,98136.91
2022-09-01T23:36:35.196Z,98121.69
2022-09-01T23:39:03.765Z,98121.16
2022-09-01T23:41:34.249Z,98130.41
2022-09-01T23:44:04.508Z,98127.19
2022-09-01T23:46:35.293Z,98126.44
2022-09-01T23:49:04.158Z,98125.66
2022-09-01T23:51:32.100Z,98128.38
2022-09-01T23:54:01.428Z,98131.41
2022-09-01T23:56:31.323Z,98122.47
2022-09-01T23:59:00.535Z,98124.94
